Big Springs, Idaho
Current Conditions -  °F | °C
As of 7:15 AM on Monday 20 Oct 2014 (Local Time) from KWYS Reporting Station
Clear Clear  
Wind Chill: 18°   Ceiling: Unl
Heat Index: 18°   Visibility: 10mi
Dew Point: 18°   Wind: 0mph
Humidity: 100%   Direction: NA
Pressure: 30.17"   Gusts: NA
Location:  44.4984°N, 111.255°W
Report Text: KWYS 201315Z AUTO 00000KT 10SM CLR M08/M08 A3017 RMK AO2
Loading
Personal Weather Stations






























Interactive Weather Map
Tropical Storm Tracking
New forecast layout! Learn more

10-Day Weather Forecast

Advertisements
Track Severe Weather on mobile